Time;durP1;ratioP1;P1;durP2;ratioP2;P2;SDS_P1;SDS_P2;PMS_P1;PMS_P2;Temp;Humidity;BMP_temperature;BMP_pressure;BME280_temperature;BME280_humidity;BME280_pressure;Samples;Min_cycle;Max_cycle;Signal;HPM_P1;HPM_P2
2023/02/14 00:00:10;;;;;;;32.00;17.13;;;;;2.60;102866.00;;;;9975253;29;20210;-80
2023/02/14 00:05:11;;;;;;;31.20;15.93;;;;;2.60;102864.00;;;;9974488;29;20233;-80
2023/02/14 00:10:13;;;;;;;33.63;16.57;;;;;2.60;102869.00;;;;10053051;29;20268;-80
2023/02/14 00:15:21;;;;;;;31.77;16.13;;;;;2.50;102859.00;;;;10066132;29;20180;-80
2023/02/14 00:20:24;;;;;;;26.97;15.30;;;;;2.30;102854.00;;;;10065667;29;20215;-80
2023/02/14 00:25:26;;;;;;;30.33;15.27;;;;;2.20;102853.00;;;;10063571;29;20719;-80
2023/02/14 00:30:27;;;;;;;25.40;14.67;;;;;2.10;102862.00;;;;10051995;29;20268;-80
2023/02/14 00:35:30;;;;;;;28.90;16.33;;;;;2.00;102855.00;;;;10031389;29;20193;-80
2023/02/14 00:40:32;;;;;;;28.13;15.53;;;;;1.90;102860.00;;;;10026940;29;20204;-80
2023/02/14 00:45:33;;;;;;;25.83;13.83;;;;;1.80;102855.00;;;;10026620;29;20265;-80
2023/02/14 00:50:35;;;;;;;27.70;14.77;;;;;1.70;102846.00;;;;10024075;29;20661;-80
2023/02/14 00:55:38;;;;;;;31.50;15.67;;;;;1.60;102858.00;;;;10022666;29;20209;-80
2023/02/14 01:00:40;;;;;;;25.00;14.50;;;;;1.60;102852.00;;;;10026845;29;20265;-80
2023/02/14 01:05:41;;;;;;;31.70;15.20;;;;;1.60;102854.00;;;;10026628;29;20580;-80
2023/02/14 01:10:44;;;;;;;32.20;16.30;;;;;1.60;102855.00;;;;10010372;29;20210;-80
2023/02/14 01:15:48;;;;;;;29.57;16.37;;;;;1.50;102853.00;;;;10026912;29;20190;-78
2023/02/14 01:20:50;;;;;;;32.17;15.67;;;;;1.50;102856.00;;;;10028133;29;20198;-78
2023/02/14 01:25:53;;;;;;;40.23;18.57;;;;;1.40;102849.00;;;;10026612;29;20274;-78
2023/02/14 01:30:55;;;;;;;33.20;16.97;;;;;1.40;102848.00;;;;9993948;29;20213;-78
2023/02/14 01:35:57;;;;;;;32.67;16.53;;;;;1.30;102843.00;;;;10031729;29;20628;-78
2023/02/14 01:40:59;;;;;;;31.00;17.87;;;;;1.30;102845.00;;;;10048097;29;20296;-78
2023/02/14 01:46:02;;;;;;;27.23;15.97;;;;;1.30;102840.00;;;;10032131;29;20215;-78
2023/02/14 01:51:04;;;;;;;34.13;17.80;;;;;1.30;102835.00;;;;10050559;29;20212;-78
2023/02/14 01:56:12;;;;;;;32.27;16.90;;;;;1.20;102840.00;;;;10029707;29;20296;-78
2023/02/14 02:01:16;;;;;;;34.47;17.50;;;;;1.10;102832.00;;;;9996016;29;20562;-77
2023/02/14 02:06:29;;;;;;;35.47;17.77;;;;;1.10;102827.00;;;;10007728;29;20585;-78
2023/02/14 02:11:32;;;;;;;33.33;17.37;;;;;1.00;102817.00;;;;10028880;29;20197;-77
2023/02/14 02:17:09;;;;;;;29.37;18.37;;;;;1.00;102814.00;;;;10028135;29;20217;-78
2023/02/14 02:22:47;;;;;;;32.70;17.07;;;;;0.90;102815.00;;;;10026955;29;20205;-80
2023/02/14 02:27:49;;;;;;;35.40;18.13;;;;;0.80;102825.00;;;;10042723;29;20225;-79
2023/02/14 02:33:07;;;;;;;29.37;15.07;;;;;0.70;102817.00;;;;10026523;29;20236;-79
2023/02/14 02:38:12;;;;;;;30.07;15.33;;;;;0.60;102814.00;;;;10027401;29;20232;-79
2023/02/14 02:43:42;;;;;;;33.03;16.80;;;;;0.50;102807.00;;;;10027148;29;20212;-80
2023/02/14 02:48:53;;;;;;;29.20;15.60;;;;;0.50;102808.00;;;;10026476;29;20577;-80
2023/02/14 02:54:21;;;;;;;32.93;16.10;;;;;0.50;102810.00;;;;10042729;29;20235;-79
2023/02/14 02:59:35;;;;;;;27.00;15.07;;;;;0.40;102810.00;;;;9995041;29;20229;-79
2023/02/14 03:04:54;;;;;;;33.43;17.73;;;;;0.40;102808.00;;;;9972875;29;20216;-79
2023/02/14 03:10:07;;;;;;;34.77;18.40;;;;;0.50;102799.00;;;;9973332;29;20289;-79
2023/02/14 03:15:09;;;;;;;34.90;18.00;;;;;0.50;102811.00;;;;10046936;29;20204;-79
2023/02/14 03:20:33;;;;;;;29.77;16.73;;;;;0.50;102804.00;;;;10080636;29;20222;-79
2023/02/14 03:25:38;;;;;;;36.03;18.13;;;;;0.40;102806.00;;;;10079447;29;20208;-80
2023/02/14 03:31:18;;;;;;;35.93;19.37;;;;;0.40;102797.00;;;;10005999;29;20205;-80
2023/02/14 03:36:28;;;;;;;33.93;17.60;;;;;0.40;102798.00;;;;9976728;29;20181;-80
2023/02/14 03:41:39;;;;;;;42.13;19.17;;;;;0.30;102798.00;;;;9991503;29;20577;-80
2023/02/14 03:46:48;;;;;;;38.23;18.03;;;;;0.40;102804.00;;;;9991615;29;20217;-80
2023/02/14 03:51:53;;;;;;;32.93;17.17;;;;;0.30;102808.00;;;;9974248;29;20196;-80
2023/02/14 03:57:04;;;;;;;29.63;16.53;;;;;0.20;102809.00;;;;10001804;29;20209;-80
2023/02/14 04:02:29;;;;;;;30.77;16.97;;;;;0.10;102811.00;;;;9976145;29;20205;-80
2023/02/14 04:07:31;;;;;;;33.53;15.73;;;;;0.00;102806.00;;;;10021462;29;20256;-80
2023/02/14 04:12:32;;;;;;;30.63;15.63;;;;;-0.10;102797.00;;;;9990025;29;20297;-80
2023/02/14 04:22:59;;;;;;;31.60;17.43;;;;;-0.20;102800.00;;;;10044421;29;20189;-80
2023/02/14 04:28:04;;;;;;;35.80;16.07;;;;;-0.20;102794.00;;;;10014343;29;20252;-80
2023/02/14 04:33:07;;;;;;;31.63;15.80;;;;;-0.20;102799.00;;;;10028833;29;20303;-80
2023/02/14 04:38:09;;;;;;;33.37;17.57;;;;;-0.20;102797.00;;;;10029272;29;20256;-81
2023/02/14 04:43:11;;;;;;;40.73;17.93;;;;;-0.20;102800.00;;;;10031455;29;20644;-81
2023/02/14 04:48:12;;;;;;;35.33;16.73;;;;;-0.20;102800.00;;;;10065041;29;20217;-80
2023/02/14 04:53:14;;;;;;;34.90;18.53;;;;;-0.20;102803.00;;;;10018034;29;20261;-80
2023/02/14 04:58:17;;;;;;;30.43;16.50;;;;;-0.20;102796.00;;;;10035635;29;20227;-80
2023/02/14 05:03:19;;;;;;;38.60;17.60;;;;;-0.30;102799.00;;;;10034089;29;20211;-81
2023/02/14 05:08:21;;;;;;;31.13;16.80;;;;;-0.30;102802.00;;;;10068818;29;20208;-80
2023/02/14 05:13:22;;;;;;;28.23;16.40;;;;;-0.30;102789.00;;;;10013953;29;20209;-80
2023/02/14 05:18:25;;;;;;;27.00;16.40;;;;;-0.40;102793.00;;;;10010359;29;20739;-80
2023/02/14 05:23:27;;;;;;;32.53;18.13;;;;;-0.40;102784.00;;;;9994309;29;20211;-80
2023/02/14 05:28:30;;;;;;;29.53;17.37;;;;;-0.30;102783.00;;;;10047882;29;20233;-80
2023/02/14 05:33:32;;;;;;;36.97;18.57;;;;;-0.30;102778.00;;;;10052147;29;20292;-80
2023/02/14 05:38:34;;;;;;;32.20;17.20;;;;;-0.20;102769.00;;;;10031236;29;20269;-80
2023/02/14 05:43:36;;;;;;;37.83;17.63;;;;;-0.20;102782.00;;;;10046121;29;20204;-80
2023/02/14 05:48:37;;;;;;;32.97;16.83;;;;;-0.20;102783.00;;;;10030398;29;20213;-80
2023/02/14 05:53:39;;;;;;;30.07;18.37;;;;;-0.30;102794.00;;;;10030218;29;20198;-80
2023/02/14 05:58:42;;;;;;;31.90;17.53;;;;;-0.30;102779.00;;;;10051044;29;20193;-81
2023/02/14 06:03:44;;;;;;;29.40;17.30;;;;;-0.40;102787.00;;;;10067862;29;20223;-80
2023/02/14 06:08:46;;;;;;;31.03;17.10;;;;;-0.50;102781.00;;;;10082539;29;20236;-81
2023/02/14 06:13:48;;;;;;;37.40;18.57;;;;;-0.50;102784.00;;;;10083397;29;20205;-80
2023/02/14 06:18:50;;;;;;;32.97;17.17;;;;;-0.50;102789.00;;;;10068708;29;20196;-80
2023/02/14 06:23:52;;;;;;;33.80;17.60;;;;;-0.50;102787.00;;;;10068071;29;20296;-80
2023/02/14 06:28:55;;;;;;;32.00;17.77;;;;;-0.40;102781.00;;;;10021067;29;20276;-79
2023/02/14 06:33:57;;;;;;;31.53;18.30;;;;;-0.50;102783.00;;;;10014510;29;20720;-79
2023/02/14 06:38:59;;;;;;;33.17;15.73;;;;;-0.60;102776.00;;;;10028467;29;20185;-80
2023/02/14 06:44:01;;;;;;;30.93;17.30;;;;;-0.60;102784.00;;;;10028425;29;20197;-79
2023/02/14 06:49:03;;;;;;;31.43;16.93;;;;;-0.70;102785.00;;;;10044161;29;20220;-79
2023/02/14 06:54:05;;;;;;;32.07;17.80;;;;;-0.70;102791.00;;;;10067051;29;20200;-79
2023/02/14 06:59:07;;;;;;;34.10;19.07;;;;;-0.70;102793.00;;;;9998761;29;20214;-79
2023/02/14 07:04:09;;;;;;;35.30;17.73;;;;;-0.60;102804.00;;;;10004220;29;20201;-79
2023/02/14 07:09:16;;;;;;;37.73;18.10;;;;;-0.50;102793.00;;;;9966198;29;20224;-79
2023/02/14 07:14:18;;;;;;;31.00;16.70;;;;;-0.40;102799.00;;;;9974055;29;20218;-80
2023/02/14 07:19:20;;;;;;;34.40;18.07;;;;;-0.40;102794.00;;;;9988899;29;20730;-80
2023/02/14 07:24:22;;;;;;;36.97;19.23;;;;;-0.10;102795.00;;;;9988290;29;20218;-79
2023/02/14 07:29:24;;;;;;;34.40;17.20;;;;;0.10;102796.00;;;;10011499;29;20221;-80
2023/02/14 07:34:26;;;;;;;44.00;19.90;;;;;0.30;102782.00;;;;10014460;29;20213;-79
2023/02/14 07:39:28;;;;;;;46.83;21.70;;;;;0.60;102775.00;;;;10041897;29;20288;-79
2023/02/14 07:44:30;;;;;;;45.57;22.23;;;;;0.80;102777.00;;;;10059386;29;20645;-79
2023/02/14 07:49:32;;;;;;;50.37;23.20;;;;;1.00;102779.00;;;;10042608;29;20267;-79
2023/02/14 07:54:34;;;;;;;57.23;24.40;;;;;1.30;102768.00;;;;10025816;29;20197;-80
2023/02/14 07:59:36;;;;;;;58.47;25.87;;;;;1.70;102773.00;;;;10024187;29;20205;-80
2023/02/14 08:04:38;;;;;;;61.47;26.33;;;;;2.20;102778.00;;;;10027729;29;20256;-81
2023/02/14 08:09:40;;;;;;;60.40;28.07;;;;;2.60;102773.00;;;;10066817;29;20249;-80
2023/02/14 08:14:42;;;;;;;64.17;25.90;;;;;3.00;102777.00;;;;10065576;29;20252;-79
2023/02/14 08:19:44;;;;;;;56.93;26.90;;;;;3.20;102780.00;;;;10059219;29;20204;-80
2023/02/14 08:24:46;;;;;;;56.73;26.13;;;;;3.50;102774.00;;;;10050203;29;20232;-79
2023/02/14 08:29:48;;;;;;;64.20;28.87;;;;;3.90;102780.00;;;;10025475;29;20216;-79
2023/02/14 08:34:50;;;;;;;64.53;28.30;;;;;4.20;102776.00;;;;10040467;29;20209;-80
2023/02/14 08:39:52;;;;;;;55.87;25.70;;;;;4.50;102766.00;;;;10045630;29;20203;-80
2023/02/14 08:44:53;;;;;;;66.10;28.27;;;;;4.90;102767.00;;;;10029906;29;20287;-79
2023/02/14 08:49:55;;;;;;;83.63;35.57;;;;;5.50;102767.00;;;;10060836;29;20720;-80
2023/02/14 08:54:57;;;;;;;110.17;43.93;;;;;6.20;102762.00;;;;10068261;29;20200;-79
2023/02/14 08:59:59;;;;;;;78.87;37.60;;;;;6.80;102770.00;;;;10048286;29;20232;-80
2023/02/14 09:05:02;;;;;;;62.80;32.93;;;;;7.40;102768.00;;;;10046039;29;20253;-79
2023/02/14 09:10:05;;;;;;;58.00;30.97;;;;;7.90;102769.00;;;;10046271;29;20221;-77
2023/02/14 09:15:08;;;;;;;41.27;26.30;;;;;8.50;102762.00;;;;10031047;29;20205;-78
2023/02/14 09:20:12;;;;;;;38.63;23.60;;;;;9.00;102760.00;;;;10032383;29;20208;-78
2023/02/14 09:25:14;;;;;;;30.80;21.20;;;;;9.30;102756.00;;;;10031930;29;20319;-78
2023/02/14 09:30:16;;;;;;;37.10;22.30;;;;;9.70;102758.00;;;;9993302;29;20216;-79
2023/02/14 09:40:40;;;;;;;31.53;20.03;;;;;10.40;102748.00;;;;10033399;29;20208;-78
2023/02/14 09:45:50;;;;;;;31.90;19.73;;;;;10.70;102745.00;;;;10030458;29;20224;-78
2023/02/14 09:50:55;;;;;;;27.27;17.53;;;;;11.00;102750.00;;;;10046343;29;20713;-78
2023/02/14 09:56:07;;;;;;;28.53;18.27;;;;;11.30;102751.00;;;;10056264;29;20250;-78
2023/02/14 10:01:17;;;;;;;28.20;16.97;;;;;11.40;102756.00;;;;10017815;29;20200;-78
2023/02/14 10:06:44;;;;;;;27.40;17.87;;;;;11.60;102746.00;;;;10067628;29;20216;-78
2023/02/14 10:11:47;;;;;;;28.07;17.87;;;;;11.90;102759.00;;;;10017056;29;20280;-78
2023/02/14 10:16:58;;;;;;;28.07;16.27;;;;;12.10;102761.00;;;;9997005;29;20197;-78
2023/02/14 10:22:04;;;;;;;28.73;18.20;;;;;12.30;102755.00;;;;10029538;29;20248;-78
2023/02/14 10:27:31;;;;;;;29.73;18.57;;;;;12.70;102758.00;;;;10043971;29;20273;-78
2023/02/14 10:32:35;;;;;;;29.37;17.73;;;;;13.10;102759.00;;;;10028153;29;20303;-78
2023/02/14 10:38:03;;;;;;;31.60;17.45;;;;;13.40;102759.00;;;;10044024;29;20193;-78
2023/02/14 10:43:29;;;;;;;32.75;17.52;;;;;13.70;102758.00;;;;10042439;29;20185;-79
2023/02/14 10:49:09;;;;;;;30.80;18.17;;;;;14.00;102746.00;;;;10042675;29;20204;-78
2023/02/14 10:54:20;;;;;;;34.83;18.15;;;;;14.30;102744.00;;;;10012974;29;20281;-78
2023/02/14 10:59:28;;;;;;;34.63;19.88;;;;;14.50;102737.00;;;;10004972;29;20198;-79
2023/02/14 11:04:31;;;;;;;34.55;18.83;;;;;14.80;102737.00;;;;10003016;29;20638;-78
2023/02/14 11:09:32;;;;;;;30.95;18.65;;;;;14.90;102726.00;;;;9987558;29;20305;-79
2023/02/14 11:14:39;;;;;;;27.88;16.95;;;;;15.00;102721.00;;;;9987845;29;20288;-79
2023/02/14 11:19:54;;;;;;;28.20;17.83;;;;;15.20;102708.00;;;;10018541;29;20190;-79
2023/02/14 11:25:23;;;;;;;27.20;18.23;;;;;15.50;102706.00;;;;9987734;29;20315;-79
2023/02/14 11:30:44;;;;;;;27.95;17.48;;;;;15.50;102695.00;;;;10033772;29;20217;-79
2023/02/14 11:35:50;;;;;;;28.90;18.45;;;;;15.60;102694.00;;;;10001898;29;20189;-79
2023/02/14 11:40:57;;;;;;;29.83;19.15;;;;;15.60;102680.00;;;;9986994;29;20230;-79
2023/02/14 11:46:09;;;;;;;29.02;18.13;;;;;15.70;102681.00;;;;10017381;29;20214;-79
2023/02/14 11:51:13;;;;;;;29.83;18.10;;;;;15.80;102682.00;;;;9992937;29;20199;-79
2023/02/14 11:56:17;;;;;;;33.50;19.02;;;;;15.90;102677.00;;;;10039507;29;20209;-79
2023/02/14 12:01:26;;;;;;;34.30;20.02;;;;;16.00;102657.00;;;;10044085;29;20197;-79
2023/02/14 12:06:31;;;;;;;32.17;18.48;;;;;16.20;102642.00;;;;9991757;29;20233;-78
2023/02/14 12:11:33;;;;;;;27.70;17.55;;;;;16.20;102635.00;;;;10041346;29;20832;-79
2023/02/14 12:16:46;;;;;;;30.63;18.35;;;;;16.40;102631.00;;;;9974027;29;20215;-78
2023/02/14 12:21:59;;;;;;;32.97;18.83;;;;;16.60;102616.00;;;;9971893;29;20293;-78
2023/02/14 12:27:20;;;;;;;28.65;17.48;;;;;16.90;102615.00;;;;10017331;29;20213;-78
2023/02/14 12:32:25;;;;;;;27.02;16.77;;;;;17.00;102606.00;;;;10079189;29;20211;-78
2023/02/14 12:37:53;;;;;;;28.88;17.85;;;;;17.00;102603.00;;;;10025091;29;20193;-79
2023/02/14 12:43:42;;;;;;;29.58;17.98;;;;;17.20;102602.00;;;;10011652;29;20276;-79
2023/02/14 12:48:52;;;;;;;34.63;18.83;;;;;17.30;102601.00;;;;10054066;29;20266;-79
2023/02/14 12:54:12;;;;;;;31.15;18.77;;;;;17.30;102600.00;;;;10039012;29;20288;-79
2023/02/14 12:59:30;;;;;;;30.58;18.23;;;;;17.30;102592.00;;;;10005610;29;20249;-79
2023/02/14 13:04:54;;;;;;;30.13;17.33;;;;;17.30;102579.00;;;;10004832;29;20196;-79
2023/02/14 13:10:16;;;;;;;27.40;18.30;;;;;17.20;102579.00;;;;10057017;29;20240;-79
2023/02/14 13:15:31;;;;;;;30.13;17.25;;;;;17.30;102573.00;;;;10045065;29;20186;-79
2023/02/14 13:21:05;;;;;;;31.05;17.45;;;;;17.40;102554.00;;;;10043749;29;20200;-79
2023/02/14 13:26:14;;;;;;;31.50;17.80;;;;;17.20;102559.00;;;;10019449;29;20227;-79
2023/02/14 13:31:19;;;;;;;33.97;17.95;;;;;17.20;102552.00;;;;10032640;29;20205;-80
2023/02/14 13:36:21;;;;;;;30.33;17.15;;;;;17.30;102548.00;;;;10043744;29;20201;-79
2023/02/14 13:41:25;;;;;;;28.00;16.98;;;;;17.20;102541.00;;;;10011978;29;20217;-78
2023/02/14 13:46:34;;;;;;;31.80;18.60;;;;;17.00;102537.00;;;;10026891;29;20221;-79
2023/02/14 13:51:47;;;;;;;32.78;17.40;;;;;16.80;102531.00;;;;10020712;29;20194;-79
2023/02/14 13:56:49;;;;;;;28.23;17.15;;;;;16.80;102528.00;;;;10003959;29;20209;-79
2023/02/14 14:01:51;;;;;;;26.90;17.17;;;;;17.10;102520.00;;;;10024876;29;20201;-79
2023/02/14 14:07:02;;;;;;;33.72;18.05;;;;;17.20;102527.00;;;;10044445;29;20213;-79
2023/02/14 14:12:26;;;;;;;32.50;17.38;;;;;16.80;102519.00;;;;10007537;29;20198;-79
2023/02/14 14:17:40;;;;;;;28.15;16.10;;;;;16.60;102517.00;;;;10094407;29;20217;-79
2023/02/14 14:22:57;;;;;;;31.17;16.75;;;;;18.00;102515.00;;;;10061912;29;20228;-79
2023/02/14 14:28:00;;;;;;;31.65;16.88;;;;;19.70;102469.00;;;;9989956;29;20246;-79
2023/02/14 14:33:31;;;;;;;30.40;17.00;;;;;20.10;102476.00;;;;10004636;29;20299;-79
2023/02/14 14:38:44;;;;;;;31.88;17.10;;;;;19.60;102478.00;;;;10035942;29;20291;-79
2023/02/14 14:43:46;;;;;;;28.10;16.23;;;;;18.30;102500.00;;;;10020961;29;20201;-79
2023/02/14 14:48:54;;;;;;;31.63;16.88;;;;;18.90;102441.00;;;;10005374;29;20218;-79
2023/02/14 14:53:58;;;;;;;29.55;16.85;;;;;18.20;102483.00;;;;10019147;29;20207;-79
2023/02/14 14:59:30;;;;;;;34.55;16.63;;;;;19.30;102446.00;;;;10028386;29;20209;-77
2023/02/14 15:04:34;;;;;;;30.35;16.73;;;;;18.80;102453.00;;;;10035537;29;20212;-78
2023/02/14 15:09:36;;;;;;;29.02;16.52;;;;;20.00;102405.00;;;;10013167;29;20444;-79
2023/02/14 15:14:42;;;;;;;29.98;15.73;;;;;20.00;102396.00;;;;10012148;29;20580;-79
2023/02/14 15:19:47;;;;;;;31.38;16.25;;;;;20.20;102425.00;;;;10026016;29;20193;-79
2023/02/14 15:24:50;;;;;;;31.30;16.48;;;;;20.90;102410.00;;;;10000836;29;20222;-79
2023/02/14 15:29:59;;;;;;;33.13;16.23;;;;;20.20;102428.00;;;;10025264;29;20618;-79
2023/02/14 15:35:04;;;;;;;28.15;15.20;;;;;18.60;102453.00;;;;10026002;29;20213;-79
2023/02/14 15:40:07;;;;;;;29.30;15.90;;;;;16.50;102466.00;;;;10029066;29;20204;-79
2023/02/14 15:45:30;;;;;;;31.45;15.65;;;;;15.70;102458.00;;;;10044264;29;20193;-79
2023/02/14 15:50:44;;;;;;;33.88;15.48;;;;;14.70;102465.00;;;;10017503;29;20212;-79
2023/02/14 15:55:48;;;;;;;34.63;15.98;;;;;13.90;102467.00;;;;10036264;29;20240;-78
2023/02/14 16:00:52;;;;;;;29.75;15.23;;;;;13.40;102471.00;;;;9989144;29;20202;-78
2023/02/14 16:05:54;;;;;;;29.70;15.10;;;;;13.00;102471.00;;;;10024067;29;20304;-78
2023/02/14 16:11:12;;;;;;;30.00;15.40;;;;;12.70;102468.00;;;;10042300;29;20221;-79
2023/02/14 16:16:15;;;;;;;31.47;14.07;;;;;12.40;102470.00;;;;10027441;29;20281;-78
2023/02/14 16:21:26;;;;;;;31.60;14.90;;;;;12.10;102466.00;;;;10046483;29;20201;-78
2023/02/14 16:26:29;;;;;;;26.67;13.10;;;;;11.70;102474.00;;;;10009898;29;20693;-78
2023/02/14 16:31:33;;;;;;;33.20;14.70;;;;;11.40;102467.00;;;;9998576;29;20227;-78
2023/02/14 16:36:35;;;;;;;31.57;15.23;;;;;11.00;102465.00;;;;10000560;29;20199;-78
2023/02/14 16:41:42;;;;;;;31.87;15.27;;;;;10.70;102474.00;;;;10043463;29;20213;-78
2023/02/14 16:46:45;;;;;;;32.50;14.70;;;;;10.40;102469.00;;;;10032835;29;20241;-77
2023/02/14 16:51:47;;;;;;;28.47;14.73;;;;;10.20;102473.00;;;;10032779;29;20205;-78
2023/02/14 16:56:56;;;;;;;35.33;16.13;;;;;9.90;102478.00;;;;10021623;29;20193;-78
2023/02/14 17:01:58;;;;;;;28.93;15.20;;;;;9.60;102481.00;;;;10030866;29;20264;-78
2023/02/14 17:07:04;;;;;;;34.30;17.07;;;;;9.30;102488.00;;;;10081454;29;20691;-78
2023/02/14 17:12:13;;;;;;;33.17;17.07;;;;;9.00;102477.00;;;;10035927;29;20209;-78
2023/02/14 17:17:15;;;;;;;34.63;18.03;;;;;8.80;102485.00;;;;10049033;29;20200;-78
2023/02/14 17:22:17;;;;;;;36.03;18.07;;;;;8.60;102483.00;;;;10032209;29;20201;-77
2023/02/14 17:27:19;;;;;;;37.90;18.00;;;;;8.40;102498.00;;;;10030430;29;20704;-77
2023/02/14 17:32:21;;;;;;;35.77;18.37;;;;;8.20;102482.00;;;;10030356;29;20287;-78
2023/02/14 17:37:23;;;;;;;40.13;18.23;;;;;8.00;102497.00;;;;10018004;29;20215;-78
2023/02/14 17:42:25;;;;;;;45.53;18.73;;;;;7.90;102489.00;;;;10083776;29;20268;-78
2023/02/14 17:47:28;;;;;;;44.17;20.70;;;;;7.70;102502.00;;;;10084465;29;20217;-79
2023/02/14 17:52:30;;;;;;;36.90;17.80;;;;;7.60;102498.00;;;;10084050;29;20203;-78
2023/02/14 17:57:32;;;;;;;31.73;17.80;;;;;7.60;102498.00;;;;10066132;29;20439;-78
2023/02/14 18:02:33;;;;;;;36.87;17.50;;;;;7.80;102500.00;;;;10031025;29;20228;-78
2023/02/14 18:07:36;;;;;;;40.93;17.47;;;;;7.70;102489.00;;;;10031145;29;20215;-77
2023/02/14 18:12:40;;;;;;;37.00;18.20;;;;;7.60;102481.00;;;;10016014;29;20208;-78
2023/02/14 18:17:41;;;;;;;39.20;19.10;;;;;7.50;102491.00;;;;10046281;29;20276;-78
2023/02/14 18:22:43;;;;;;;31.57;16.37;;;;;7.30;102483.00;;;;10008363;29;20688;-78
2023/02/14 18:27:45;;;;;;;38.17;19.50;;;;;7.20;102479.00;;;;10010787;29;20684;-78
2023/02/14 18:32:47;;;;;;;38.13;19.13;;;;;7.20;102473.00;;;;10016157;29;20673;-77
2023/02/14 18:37:50;;;;;;;36.23;18.07;;;;;7.20;102481.00;;;;10015096;29;20227;-78
2023/02/14 18:42:53;;;;;;;34.33;17.30;;;;;7.00;102482.00;;;;10072009;29;20287;-78
2023/02/14 18:47:55;;;;;;;36.27;18.60;;;;;6.80;102478.00;;;;10099785;29;20219;-77
2023/02/14 18:52:57;;;;;;;36.57;19.33;;;;;6.70;102483.00;;;;10049036;29;20197;-78
2023/02/14 18:57:59;;;;;;;42.07;19.97;;;;;6.50;102477.00;;;;10014489;29;20201;-77
2023/02/14 19:03:01;;;;;;;37.93;20.27;;;;;6.40;102483.00;;;;10044040;29;20287;-78
2023/02/14 19:08:04;;;;;;;35.30;17.93;;;;;6.20;102480.00;;;;10029179;29;20216;-77
2023/02/14 19:13:06;;;;;;;38.30;20.97;;;;;6.00;102469.00;;;;10029478;29;20298;-78
2023/02/14 19:18:08;;;;;;;45.93;21.57;;;;;5.80;102468.00;;;;10047241;29;20208;-78
2023/02/14 19:23:10;;;;;;;38.73;19.20;;;;;5.70;102471.00;;;;10066748;29;20211;-77
2023/02/14 19:28:12;;;;;;;42.53;20.47;;;;;5.50;102459.00;;;;10075464;29;20220;-78
2023/02/14 19:33:14;;;;;;;39.17;19.33;;;;;5.30;102461.00;;;;10063587;29;20300;-78
2023/02/14 19:38:16;;;;;;;42.00;19.47;;;;;5.20;102460.00;;;;10027819;29;20189;-77
2023/02/14 19:43:18;;;;;;;44.40;20.83;;;;;5.10;102468.00;;;;10057340;29;20275;-77
2023/02/14 19:48:20;;;;;;;43.07;21.30;;;;;5.00;102464.00;;;;10061728;29;20220;-77
2023/02/14 19:53:22;;;;;;;41.37;22.73;;;;;4.90;102460.00;;;;9997683;29;20305;-77
2023/02/14 19:58:25;;;;;;;49.53;24.03;;;;;4.80;102450.00;;;;10018671;29;20239;-77
2023/02/14 20:03:27;;;;;;;49.33;25.20;;;;;4.70;102442.00;;;;10026158;29;20549;-79
2023/02/14 20:08:30;;;;;;;49.20;24.33;;;;;4.70;102437.00;;;;10019277;29;20228;-78
2023/02/14 20:13:32;;;;;;;50.87;25.53;;;;;4.70;102429.00;;;;10063830;29;20197;-78
2023/02/14 20:18:33;;;;;;;53.63;25.73;;;;;4.60;102416.00;;;;10032665;29;20205;-77
2023/02/14 20:23:35;;;;;;;39.50;22.13;;;;;4.50;102415.00;;;;10011717;29;20669;-78
2023/02/14 20:28:37;;;;;;;43.13;22.53;;;;;4.40;102405.00;;;;10026363;29;20264;-78
2023/02/14 20:33:40;;;;;;;42.47;22.07;;;;;4.20;102410.00;;;;10044106;29;20237;-78
2023/02/14 20:38:42;;;;;;;40.23;20.80;;;;;4.10;102399.00;;;;10032243;29;20189;-77
2023/02/14 20:43:43;;;;;;;44.97;21.83;;;;;4.00;102402.00;;;;10030691;29;20209;-78
2023/02/14 20:48:45;;;;;;;36.10;19.73;;;;;3.80;102393.00;;;;10015512;29;20240;-79
2023/02/14 20:53:47;;;;;;;49.80;19.97;;;;;3.70;102382.00;;;;10045233;29;20193;-78
2023/02/14 20:58:49;;;;;;;43.67;21.90;;;;;3.60;102386.00;;;;10067575;29;20268;-78
2023/02/14 21:03:52;;;;;;;39.80;21.27;;;;;3.50;102381.00;;;;10066902;29;20204;-78
2023/02/14 21:08:55;;;;;;;43.33;24.37;;;;;3.40;102387.00;;;;10063281;29;20225;-79
2023/02/14 21:13:58;;;;;;;49.43;23.60;;;;;3.40;102395.00;;;;10029102;29;20272;-79
2023/02/14 21:19:00;;;;;;;49.13;26.00;;;;;3.30;102393.00;;;;10029071;29;20197;-78
2023/02/14 21:24:14;;;;;;;61.23;29.57;;;;;3.30;102378.00;;;;10041793;29;20196;-79
2023/02/14 21:29:16;;;;;;;62.53;29.43;;;;;3.20;102371.00;;;;10036176;29;20228;-78
2023/02/14 21:34:19;;;;;;;67.97;30.70;;;;;3.20;102376.00;;;;9959320;29;1172671;-78
2023/02/14 21:39:26;;;;;;;59.10;28.70;;;;;3.20;102369.00;;;;10041770;29;20287;-78
2023/02/14 21:55:09;;;;;;;57.87;27.13;;;;;3.00;102350.00;;;;10015859;29;20221;-78
2023/02/14 22:00:11;;;;;;;53.30;26.23;;;;;3.00;102355.00;;;;10042856;29;20200;-79
2023/02/14 22:05:13;;;;;;;47.07;24.27;;;;;2.90;102347.00;;;;10010264;29;20880;-78
2023/02/14 22:10:16;;;;;;;54.07;26.23;;;;;2.70;102340.00;;;;10011728;29;20823;-79
2023/02/14 22:15:18;;;;;;;55.50;26.83;;;;;2.70;102346.00;;;;10023346;29;20276;-78
2023/02/14 22:20:19;;;;;;;50.17;25.53;;;;;2.70;102344.00;;;;10022954;29;20280;-78
2023/02/14 22:25:23;;;;;;;53.83;25.90;;;;;2.70;102347.00;;;;10009496;29;20281;-78
2023/02/14 22:30:25;;;;;;;56.30;27.10;;;;;2.60;102351.00;;;;10014333;29;20242;-78
2023/02/14 22:35:28;;;;;;;53.70;26.33;;;;;2.60;102339.00;;;;10012126;29;20211;-78
2023/02/14 22:40:30;;;;;;;54.23;27.97;;;;;2.60;102339.00;;;;10004999;29;20205;-78
2023/02/14 22:45:32;;;;;;;57.87;27.37;;;;;2.50;102335.00;;;;10030715;29;20193;-79
2023/02/14 22:50:34;;;;;;;52.17;27.03;;;;;2.50;102334.00;;;;10016794;29;20253;-79
2023/02/14 22:55:36;;;;;;;52.00;26.63;;;;;2.40;102335.00;;;;10029279;29;20232;-78
2023/02/14 23:00:38;;;;;;;53.13;26.03;;;;;2.40;102318.00;;;;10014034;29;20828;-78
2023/02/14 23:05:40;;;;;;;54.73;24.70;;;;;2.40;102320.00;;;;10010800;29;20216;-79
2023/02/14 23:10:42;;;;;;;50.20;25.83;;;;;2.50;102322.00;;;;10035593;29;20205;-78
2023/02/14 23:26:33;;;;;;;49.57;23.90;;;;;2.20;102326.00;;;;10015325;29;20223;-79
2023/02/14 23:31:38;;;;;;;51.07;24.17;;;;;2.00;102335.00;;;;10042974;29;20289;-79
2023/02/14 23:36:40;;;;;;;52.73;24.57;;;;;2.00;102317.00;;;;10042642;29;20197;-79
2023/02/14 23:41:48;;;;;;;51.70;24.90;;;;;1.90;102315.00;;;;10027254;29;20257;-79
2023/02/14 23:46:52;;;;;;;50.77;24.00;;;;;1.90;102318.00;;;;10052557;29;20802;-79
2023/02/14 23:51:55;;;;;;;57.83;26.83;;;;;2.00;102305.00;;;;10064013;29;20244;-79
2023/02/14 23:56:57;;;;;;;56.60;26.83;;;;;1.90;102310.00;;;;10027287;29;20237;-80
